sensor_id;sensor_type;location;lat;lon;timestamp;pressure;altitude;pressure_sealevel;temperature;humidity
66560;BME280;53413;49.878;8.142;2023-06-19T00:02:04;99416.94;;;22.24;69.76
66560;BME280;53413;49.878;8.142;2023-06-19T00:04:29;99417.63;;;22.26;69.66
66560;BME280;53413;49.878;8.142;2023-06-19T00:06:54;99420.75;;;22.21;69.96
66560;BME280;53413;49.878;8.142;2023-06-19T00:09:20;99422.63;;;22.11;70.76
66560;BME280;53413;49.878;8.142;2023-06-19T00:11:45;99418.59;;;21.97;72.14
66560;BME280;53413;49.878;8.142;2023-06-19T00:14:11;99407.44;;;21.83;72.97
66560;BME280;53413;49.878;8.142;2023-06-19T00:16:36;99411.41;;;21.70;74.12
66560;BME280;53413;49.878;8.142;2023-06-19T00:19:02;99399.38;;;21.56;75.33
66560;BME280;53413;49.878;8.142;2023-06-19T00:21:29;99397.69;;;21.45;75.30
66560;BME280;53413;49.878;8.142;2023-06-19T00:23:54;99405.97;;;21.42;75.72
66560;BME280;53413;49.878;8.142;2023-06-19T00:26:20;99405.44;;;21.38;76.66
66560;BME280;53413;49.878;8.142;2023-06-19T00:28:48;99401.53;;;21.32;77.44
66560;BME280;53413;49.878;8.142;2023-06-19T00:31:14;99400.81;;;21.30;77.75
66560;BME280;53413;49.878;8.142;2023-06-19T00:33:40;99397.75;;;21.25;78.87
66560;BME280;53413;49.878;8.142;2023-06-19T00:36:13;99382.19;;;21.20;78.75
66560;BME280;53413;49.878;8.142;2023-06-19T00:38:39;99380.63;;;21.18;78.93
66560;BME280;53413;49.878;8.142;2023-06-19T00:41:05;99378.41;;;21.13;79.89
66560;BME280;53413;49.878;8.142;2023-06-19T00:43:31;99379.53;;;21.11;80.37
66560;BME280;53413;49.878;8.142;2023-06-19T00:46:01;99373.78;;;21.05;81.29
66560;BME280;53413;49.878;8.142;2023-06-19T00:48:28;99370.56;;;21.02;81.41
66560;BME280;53413;49.878;8.142;2023-06-19T00:50:56;99366.94;;;21.03;81.13
66560;BME280;53413;49.878;8.142;2023-06-19T00:53:22;99373.78;;;21.05;82.05
66560;BME280;53413;49.878;8.142;2023-06-19T00:55:49;99368.34;;;21.07;82.96
66560;BME280;53413;49.878;8.142;2023-06-19T00:58:17;99377.31;;;21.06;83.66
66560;BME280;53413;49.878;8.142;2023-06-19T01:00:42;99383.34;;;21.08;83.84
66560;BME280;53413;49.878;8.142;2023-06-19T01:03:08;99387.69;;;21.09;83.97
66560;BME280;53413;49.878;8.142;2023-06-19T01:05:33;99396.34;;;21.11;84.44
66560;BME280;53413;49.878;8.142;2023-06-19T01:08:03;99393.56;;;21.13;84.83
66560;BME280;53413;49.878;8.142;2023-06-19T01:10:51;99398.47;;;21.07;85.93
66560;BME280;53413;49.878;8.142;2023-06-19T01:15:47;99435.63;;;20.89;85.80
66560;BME280;53413;49.878;8.142;2023-06-19T01:18:13;99422.16;;;20.81;83.09
66560;BME280;53413;49.878;8.142;2023-06-19T01:20:39;99437.31;;;20.81;80.99
66560;BME280;53413;49.878;8.142;2023-06-19T01:23:09;99440.38;;;20.76;81.48
66560;BME280;53413;49.878;8.142;2023-06-19T01:25:35;99446.22;;;20.70;82.24
66560;BME280;53413;49.878;8.142;2023-06-19T01:28:02;99432.91;;;20.60;83.95
66560;BME280;53413;49.878;8.142;2023-06-19T01:30:30;99435.56;;;20.50;85.47
66560;BME280;53413;49.878;8.142;2023-06-19T01:35:29;99436.91;;;20.35;91.02
66560;BME280;53413;49.878;8.142;2023-06-19T01:37:56;99435.91;;;20.26;92.17
66560;BME280;53413;49.878;8.142;2023-06-19T01:40:23;99438.25;;;20.19;93.38
66560;BME280;53413;49.878;8.142;2023-06-19T01:42:52;99437.13;;;20.12;95.50
66560;BME280;53413;49.878;8.142;2023-06-19T01:45:18;99448.28;;;20.06;96.17
66560;BME280;53413;49.878;8.142;2023-06-19T01:47:44;99448.69;;;20.01;95.56
66560;BME280;53413;49.878;8.142;2023-06-19T01:50:10;99451.50;;;19.99;96.18
66560;BME280;53413;49.878;8.142;2023-06-19T01:52:40;99450.06;;;19.95;96.66
66560;BME280;53413;49.878;8.142;2023-06-19T01:55:06;99449.63;;;19.90;97.25
66560;BME280;53413;49.878;8.142;2023-06-19T01:57:32;99453.38;;;19.88;98.73
66560;BME280;53413;49.878;8.142;2023-06-19T01:59:57;99458.31;;;19.92;99.10
66560;BME280;53413;49.878;8.142;2023-06-19T02:02:23;99446.28;;;19.98;99.15
66560;BME280;53413;49.878;8.142;2023-06-19T02:04:48;99451.91;;;20.05;98.95
66560;BME280;53413;49.878;8.142;2023-06-19T02:07:14;99452.50;;;20.08;99.35
66560;BME280;53413;49.878;8.142;2023-06-19T02:09:39;99449.56;;;20.11;99.05
66560;BME280;53413;49.878;8.142;2023-06-19T02:12:06;99458.13;;;20.15;98.98
66560;BME280;53413;49.878;8.142;2023-06-19T02:14:32;99451.72;;;20.18;98.90
66560;BME280;53413;49.878;8.142;2023-06-19T02:16:57;99454.94;;;20.21;99.25
66560;BME280;53413;49.878;8.142;2023-06-19T02:19:22;99460.00;;;20.24;97.46
66560;BME280;53413;49.878;8.142;2023-06-19T02:21:48;99455.94;;;20.30;96.66
66560;BME280;53413;49.878;8.142;2023-06-19T02:24:13;99456.25;;;20.37;95.99
66560;BME280;53413;49.878;8.142;2023-06-19T02:26:38;99465.38;;;20.44;95.81
66560;BME280;53413;49.878;8.142;2023-06-19T02:29:04;99459.38;;;20.52;95.91
66560;BME280;53413;49.878;8.142;2023-06-19T02:31:29;99465.53;;;20.62;95.29
66560;BME280;53413;49.878;8.142;2023-06-19T02:33:55;99464.72;;;20.71;94.72
66560;BME280;53413;49.878;8.142;2023-06-19T02:36:20;99468.69;;;20.77;94.11
66560;BME280;53413;49.878;8.142;2023-06-19T02:38:46;99472.31;;;20.76;93.53
66560;BME280;53413;49.878;8.142;2023-06-19T02:41:12;99470.75;;;20.73;94.39
66560;BME280;53413;49.878;8.142;2023-06-19T02:43:39;99472.41;;;20.65;94.87
66560;BME280;53413;49.878;8.142;2023-06-19T02:46:05;99476.59;;;20.57;95.96
66560;BME280;53413;49.878;8.142;2023-06-19T02:48:30;99483.47;;;20.50;97.28
66560;BME280;53413;49.878;8.142;2023-06-19T02:50:56;99487.50;;;20.44;97.99
66560;BME280;53413;49.878;8.142;2023-06-19T02:53:21;99483.44;;;20.40;99.23
66560;BME280;53413;49.878;8.142;2023-06-19T02:55:47;99482.88;;;20.37;99.48
66560;BME280;53413;49.878;8.142;2023-06-19T02:58:12;99475.72;;;20.37;99.69
66560;BME280;53413;49.878;8.142;2023-06-19T03:00:37;99472.78;;;20.40;100.00
66560;BME280;53413;49.878;8.142;2023-06-19T03:03:03;99483.72;;;20.47;99.72
66560;BME280;53413;49.878;8.142;2023-06-19T03:05:28;99482.34;;;20.53;100.00
66560;BME280;53413;49.878;8.142;2023-06-19T03:07:53;99486.41;;;20.57;100.00
66560;BME280;53413;49.878;8.142;2023-06-19T03:10:19;99490.75;;;20.58;100.00
66560;BME280;53413;49.878;8.142;2023-06-19T03:12:44;99498.63;;;20.59;100.00
66560;BME280;53413;49.878;8.142;2023-06-19T03:15:10;99496.38;;;20.65;100.00
66560;BME280;53413;49.878;8.142;2023-06-19T03:17:35;99500.78;;;20.75;100.00
66560;BME280;53413;49.878;8.142;2023-06-19T03:20:01;99506.25;;;20.84;99.12
66560;BME280;53413;49.878;8.142;2023-06-19T03:22:26;99513.56;;;20.91;98.53
66560;BME280;53413;49.878;8.142;2023-06-19T03:24:51;99512.03;;;20.99;98.00
66560;BME280;53413;49.878;8.142;2023-06-19T03:27:17;99511.63;;;21.03;97.05
66560;BME280;53413;49.878;8.142;2023-06-19T03:29:43;99512.03;;;21.09;96.65
66560;BME280;53413;49.878;8.142;2023-06-19T03:32:08;99517.25;;;21.10;96.69
66560;BME280;53413;49.878;8.142;2023-06-19T03:34:33;99518.91;;;21.11;96.46
66560;BME280;53413;49.878;8.142;2023-06-19T03:36:59;99529.56;;;21.11;96.46
66560;BME280;53413;49.878;8.142;2023-06-19T03:39:24;99531.25;;;21.12;96.24
66560;BME280;53413;49.878;8.142;2023-06-19T03:41:50;99536.56;;;21.12;97.00
66560;BME280;53413;49.878;8.142;2023-06-19T03:44:15;99541.22;;;21.10;97.14
66560;BME280;53413;49.878;8.142;2023-06-19T03:46:40;99531.38;;;21.11;96.96
66560;BME280;53413;49.878;8.142;2023-06-19T03:49:06;99538.56;;;21.10;97.14
66560;BME280;53413;49.878;8.142;2023-06-19T03:51:32;99546.09;;;21.05;97.75
66560;BME280;53413;49.878;8.142;2023-06-19T03:53:57;99541.59;;;20.96;98.85
66560;BME280;53413;49.878;8.142;2023-06-19T03:56:23;99543.28;;;20.87;98.97
66560;BME280;53413;49.878;8.142;2023-06-19T03:58:48;99549.41;;;20.78;99.75
66560;BME280;53413;49.878;8.142;2023-06-19T04:01:13;99546.69;;;20.68;100.00
66560;BME280;53413;49.878;8.142;2023-06-19T04:03:39;99564.91;;;20.63;100.00
66560;BME280;53413;49.878;8.142;2023-06-19T04:06:04;99562.75;;;20.56;100.00
66560;BME280;53413;49.878;8.142;2023-06-19T04:08:29;99573.66;;;20.53;100.00
66560;BME280;53413;49.878;8.142;2023-06-19T04:10:55;99575.50;;;20.53;100.00
66560;BME280;53413;49.878;8.142;2023-06-19T04:13:20;99576.22;;;20.55;100.00
66560;BME280;53413;49.878;8.142;2023-06-19T04:15:46;99585.75;;;20.57;100.00
66560;BME280;53413;49.878;8.142;2023-06-19T04:18:12;99583.78;;;20.59;100.00
66560;BME280;53413;49.878;8.142;2023-06-19T04:20:37;99583.13;;;20.67;100.00
66560;BME280;53413;49.878;8.142;2023-06-19T04:23:02;99580.25;;;20.80;100.00
66560;BME280;53413;49.878;8.142;2023-06-19T04:25:28;99580.69;;;20.95;100.00
66560;BME280;53413;49.878;8.142;2023-06-19T04:27:53;99588.03;;;21.13;99.01
66560;BME280;53413;49.878;8.142;2023-06-19T04:30:19;99587.78;;;21.35;97.30
66560;BME280;53413;49.878;8.142;2023-06-19T04:32:46;99589.63;;;21.55;95.90
66560;BME280;53413;49.878;8.142;2023-06-19T04:35:12;99582.91;;;21.80;93.56
66560;BME280;53413;49.878;8.142;2023-06-19T04:37:37;99582.59;;;22.03;91.87
66560;BME280;53413;49.878;8.142;2023-06-19T04:40:02;99585.06;;;22.24;90.31
66560;BME280;53413;49.878;8.142;2023-06-19T04:42:29;99589.25;;;22.36;89.22
66560;BME280;53413;49.878;8.142;2023-06-19T04:44:54;99583.31;;;22.52;88.55
66560;BME280;53413;49.878;8.142;2023-06-19T04:47:23;99577.34;;;22.68;87.16
66560;BME280;53413;49.878;8.142;2023-06-19T04:49:48;99574.88;;;22.85;86.50
66560;BME280;53413;49.878;8.142;2023-06-19T04:52:14;99576.53;;;22.96;86.08
66560;BME280;53413;49.878;8.142;2023-06-19T04:54:39;99572.94;;;23.05;84.92
66560;BME280;53413;49.878;8.142;2023-06-19T04:57:05;99580.91;;;23.15;84.48
66560;BME280;53413;49.878;8.142;2023-06-19T04:59:31;99574.97;;;23.21;83.52
66560;BME280;53413;49.878;8.142;2023-06-19T05:01:57;99571.72;;;23.27;82.57
66560;BME280;53413;49.878;8.142;2023-06-19T05:04:23;99573.59;;;23.35;82.50
66560;BME280;53413;49.878;8.142;2023-06-19T05:06:49;99569.88;;;23.46;81.97
66560;BME280;53413;49.878;8.142;2023-06-19T05:09:14;99576.72;;;23.66;81.38
66560;BME280;53413;49.878;8.142;2023-06-19T05:11:40;99582.50;;;23.80;80.77
66560;BME280;53413;49.878;8.142;2023-06-19T05:14:06;99577.34;;;23.96;79.72
66560;BME280;53413;49.878;8.142;2023-06-19T05:16:31;99583.03;;;24.02;78.70
66560;BME280;53413;49.878;8.142;2023-06-19T05:18:57;99583.16;;;24.18;78.68
66560;BME280;53413;49.878;8.142;2023-06-19T05:21:22;99579.00;;;24.24;78.46
66560;BME280;53413;49.878;8.142;2023-06-19T05:23:47;99587.28;;;24.39;77.79
66560;BME280;53413;49.878;8.142;2023-06-19T05:26:19;99585.28;;;24.41;77.18
66560;BME280;53413;49.878;8.142;2023-06-19T05:28:45;99590.84;;;24.48;76.99
66560;BME280;53413;49.878;8.142;2023-06-19T05:31:10;99591.25;;;24.61;76.63
66560;BME280;53413;49.878;8.142;2023-06-19T05:33:35;99602.91;;;24.78;76.17
66560;BME280;53413;49.878;8.142;2023-06-19T05:36:01;99598.09;;;24.90;74.66
66560;BME280;53413;49.878;8.142;2023-06-19T05:38:26;99605.16;;;25.42;73.30
66560;BME280;53413;49.878;8.142;2023-06-19T05:40:53;99607.19;;;27.50;65.94
66560;BME280;53413;49.878;8.142;2023-06-19T05:43:18;99610.34;;;29.42;59.18
66560;BME280;53413;49.878;8.142;2023-06-19T05:45:44;99607.66;;;29.86;57.04
66560;BME280;53413;49.878;8.142;2023-06-19T05:48:09;99616.59;;;30.71;54.24
66560;BME280;53413;49.878;8.142;2023-06-19T05:50:35;99609.94;;;31.16;52.05
66560;BME280;53413;49.878;8.142;2023-06-19T05:53:00;99617.97;;;31.02;51.32
66560;BME280;53413;49.878;8.142;2023-06-19T05:55:25;99615.84;;;30.91;51.45
66560;BME280;53413;49.878;8.142;2023-06-19T05:57:52;99625.34;;;31.29;50.52
66560;BME280;53413;49.878;8.142;2023-06-19T06:00:18;99626.06;;;32.12;49.04
66560;BME280;53413;49.878;8.142;2023-06-19T06:02:44;99632.44;;;32.84;47.70
66560;BME280;53413;49.878;8.142;2023-06-19T06:05:10;99640.09;;;33.79;45.11
66560;BME280;53413;49.878;8.142;2023-06-19T06:07:35;99635.47;;;32.22;47.17
66560;BME280;53413;49.878;8.142;2023-06-19T06:10:01;99653.13;;;30.61;50.63
66560;BME280;53413;49.878;8.142;2023-06-19T06:12:27;99655.34;;;29.57;53.42
66560;BME280;53413;49.878;8.142;2023-06-19T06:14:52;99649.81;;;28.92;54.85
66560;BME280;53413;49.878;8.142;2023-06-19T06:17:17;99659.63;;;30.38;52.66
66560;BME280;53413;49.878;8.142;2023-06-19T06:19:43;99658.25;;;33.07;47.10
66560;BME280;53413;49.878;8.142;2023-06-19T06:22:08;99663.03;;;35.64;42.60
66560;BME280;53413;49.878;8.142;2023-06-19T06:24:33;99665.19;;;37.91;38.21
66560;BME280;53413;49.878;8.142;2023-06-19T06:26:59;99665.97;;;39.26;35.50
66560;BME280;53413;49.878;8.142;2023-06-19T06:29:24;99659.22;;;40.37;34.00
66560;BME280;53413;49.878;8.142;2023-06-19T06:31:50;99653.13;;;41.62;31.80
66560;BME280;53413;49.878;8.142;2023-06-19T06:34:18;99654.19;;;42.39;30.67
66560;BME280;53413;49.878;8.142;2023-06-19T06:36:44;99656.94;;;43.49;29.85
66560;BME280;53413;49.878;8.142;2023-06-19T06:39:10;99658.25;;;44.51;28.80
66560;BME280;53413;49.878;8.142;2023-06-19T06:41:36;99662.72;;;45.33;27.45
66560;BME280;53413;49.878;8.142;2023-06-19T06:44:01;99669.56;;;45.17;26.81
66560;BME280;53413;49.878;8.142;2023-06-19T06:46:27;99667.53;;;44.60;26.88
66560;BME280;53413;49.878;8.142;2023-06-19T06:48:52;99662.72;;;44.47;27.00
66560;BME280;53413;49.878;8.142;2023-06-19T06:51:17;99664.91;;;44.50;26.95
66560;BME280;53413;49.878;8.142;2023-06-19T06:53:43;99665.75;;;44.94;26.42
66560;BME280;53413;49.878;8.142;2023-06-19T06:56:08;99665.81;;;44.40;26.13
66560;BME280;53413;49.878;8.142;2023-06-19T06:58:33;99669.25;;;44.02;27.57
66560;BME280;53413;49.878;8.142;2023-06-19T07:00:59;99671.63;;;43.79;27.29
66560;BME280;53413;49.878;8.142;2023-06-19T07:03:24;99664.91;;;42.35;28.86
66560;BME280;53413;49.878;8.142;2023-06-19T07:05:50;99670.09;;;41.18;29.80
66560;BME280;53413;49.878;8.142;2023-06-19T07:08:15;99675.94;;;40.30;30.76
66560;BME280;53413;49.878;8.142;2023-06-19T07:10:40;99676.53;;;39.18;32.48
66560;BME280;53413;49.878;8.142;2023-06-19T07:13:06;99676.84;;;39.21;32.35
66560;BME280;53413;49.878;8.142;2023-06-19T07:15:31;99679.03;;;39.19;32.22
66560;BME280;53413;49.878;8.142;2023-06-19T07:17:57;99677.31;;;39.63;32.27
66560;BME280;53413;49.878;8.142;2023-06-19T07:20:22;99678.88;;;41.25;30.40
66560;BME280;53413;49.878;8.142;2023-06-19T07:22:53;99688.06;;;43.55;28.02
66560;BME280;53413;49.878;8.142;2023-06-19T07:25:19;99697.81;;;44.17;27.16
66560;BME280;53413;49.878;8.142;2023-06-19T07:27:44;99700.09;;;43.75;27.64
66560;BME280;53413;49.878;8.142;2023-06-19T07:30:10;99690.28;;;43.08;28.21
66560;BME280;53413;49.878;8.142;2023-06-19T07:32:41;99687.44;;;42.48;28.46
66560;BME280;53413;49.878;8.142;2023-06-19T07:35:07;99687.47;;;42.37;28.57
66560;BME280;53413;49.878;8.142;2023-06-19T07:37:33;99687.56;;;43.53;27.35
66560;BME280;53413;49.878;8.142;2023-06-19T07:39:58;99704.44;;;43.86;27.31
66560;BME280;53413;49.878;8.142;2023-06-19T07:42:23;99691.63;;;44.30;26.52
66560;BME280;53413;49.878;8.142;2023-06-19T07:44:49;99692.09;;;45.29;25.86
66560;BME280;53413;49.878;8.142;2023-06-19T07:47:15;99696.69;;;44.71;25.93
66560;BME280;53413;49.878;8.142;2023-06-19T07:49:41;99695.97;;;45.67;25.61
66560;BME280;53413;49.878;8.142;2023-06-19T07:52:07;99701.78;;;46.17;24.91
66560;BME280;53413;49.878;8.142;2023-06-19T07:54:34;99698.81;;;45.42;25.59
66560;BME280;53413;49.878;8.142;2023-06-19T07:57:00;99711.59;;;46.56;24.27
66560;BME280;53413;49.878;8.142;2023-06-19T07:59:25;99711.91;;;46.08;24.76
66560;BME280;53413;49.878;8.142;2023-06-19T08:01:51;99700.72;;;47.39;23.24
66560;BME280;53413;49.878;8.142;2023-06-19T08:04:16;99706.56;;;47.74;23.55
66560;BME280;53413;49.878;8.142;2023-06-19T08:06:42;99704.59;;;48.29;22.85
66560;BME280;53413;49.878;8.142;2023-06-19T08:09:07;99720.59;;;48.63;22.75
66560;BME280;53413;49.878;8.142;2023-06-19T08:11:33;99703.41;;;49.54;22.13
66560;BME280;53413;49.878;8.142;2023-06-19T08:13:58;99702.34;;;50.03;21.60
66560;BME280;53413;49.878;8.142;2023-06-19T08:16:25;99709.56;;;50.51;21.19
66560;BME280;53413;49.878;8.142;2023-06-19T08:18:51;99717.97;;;49.69;21.76
66560;BME280;53413;49.878;8.142;2023-06-19T08:21:17;99724.75;;;48.75;22.43
66560;BME280;53413;49.878;8.142;2023-06-19T08:23:42;99719.09;;;47.71;22.48
66560;BME280;53413;49.878;8.142;2023-06-19T08:26:09;99711.00;;;46.26;24.17
66560;BME280;53413;49.878;8.142;2023-06-19T08:28:35;99711.38;;;46.95;23.75
66560;BME280;53413;49.878;8.142;2023-06-19T08:31:00;99704.84;;;47.13;23.48
66560;BME280;53413;49.878;8.142;2023-06-19T08:33:26;99711.66;;;47.81;22.85
66560;BME280;53413;49.878;8.142;2023-06-19T08:35:51;99714.78;;;48.82;22.29
66560;BME280;53413;49.878;8.142;2023-06-19T08:38:18;99716.81;;;48.59;22.16
66560;BME280;53413;49.878;8.142;2023-06-19T08:40:43;99716.88;;;48.05;22.81
66560;BME280;53413;49.878;8.142;2023-06-19T08:43:09;99714.00;;;48.42;22.25
66560;BME280;53413;49.878;8.142;2023-06-19T08:45:35;99709.31;;;49.53;21.70
66560;BME280;53413;49.878;8.142;2023-06-19T08:48:01;99711.75;;;49.28;21.62
66560;BME280;53413;49.878;8.142;2023-06-19T08:50:33;99719.06;;;48.48;22.44
66560;BME280;53413;49.878;8.142;2023-06-19T08:52:58;99713.13;;;48.73;22.18
66560;BME280;53413;49.878;8.142;2023-06-19T08:55:24;99718.00;;;47.36;23.03
66560;BME280;53413;49.878;8.142;2023-06-19T08:57:50;99709.34;;;45.59;24.07
66560;BME280;53413;49.878;8.142;2023-06-19T09:00:28;99704.75;;;45.35;24.70
66560;BME280;53413;49.878;8.142;2023-06-19T09:03:00;99715.59;;;47.43;23.00
66560;BME280;53413;49.878;8.142;2023-06-19T09:05:27;99706.78;;;49.95;21.33
66560;BME280;53413;49.878;8.142;2023-06-19T09:07:57;99720.03;;;51.57;19.77
66560;BME280;53413;49.878;8.142;2023-06-19T09:10:24;99723.16;;;52.72;18.70
66560;BME280;53413;49.878;8.142;2023-06-19T09:13:03;99722.00;;;52.48;18.99
66560;BME280;53413;49.878;8.142;2023-06-19T09:15:34;99731.41;;;51.31;19.80
66560;BME280;53413;49.878;8.142;2023-06-19T09:18:08;99719.78;;;49.65;21.17
66560;BME280;53413;49.878;8.142;2023-06-19T09:20:36;99716.00;;;47.73;22.62
66560;BME280;53413;49.878;8.142;2023-06-19T09:23:03;99718.53;;;45.93;24.10
66560;BME280;53413;49.878;8.142;2023-06-19T09:25:29;99708.63;;;43.78;25.60
66560;BME280;53413;49.878;8.142;2023-06-19T09:27:55;99706.16;;;43.32;26.25
66560;BME280;53413;49.878;8.142;2023-06-19T09:30:20;99715.13;;;43.93;25.60
66560;BME280;53413;49.878;8.142;2023-06-19T09:32:46;99710.41;;;43.59;25.48
66560;BME280;53413;49.878;8.142;2023-06-19T09:35:11;99713.88;;;44.39;25.07
66560;BME280;53413;49.878;8.142;2023-06-19T09:37:38;99704.53;;;46.03;24.20
66560;BME280;53413;49.878;8.142;2023-06-19T09:40:04;99707.56;;;45.69;24.28
66560;BME280;53413;49.878;8.142;2023-06-19T09:42:43;99711.50;;;43.97;25.73
66560;BME280;53413;49.878;8.142;2023-06-19T09:45:11;99706.69;;;42.68;26.69
66560;BME280;53413;49.878;8.142;2023-06-19T09:50:03;99710.94;;;39.53;30.08
66560;BME280;53413;49.878;8.142;2023-06-19T09:52:29;99710.72;;;38.71;31.61
66560;BME280;53413;49.878;8.142;2023-06-19T09:54:55;99709.13;;;38.18;32.20
66560;BME280;53413;49.878;8.142;2023-06-19T09:57:21;99714.44;;;38.08;32.34
66560;BME280;53413;49.878;8.142;2023-06-19T09:59:54;99710.03;;;38.07;32.26
66560;BME280;53413;49.878;8.142;2023-06-19T10:02:22;99706.97;;;38.77;32.06
66560;BME280;53413;49.878;8.142;2023-06-19T10:04:53;99714.53;;;39.31;30.96
66560;BME280;53413;49.878;8.142;2023-06-19T10:07:20;99713.00;;;38.57;32.23
66560;BME280;53413;49.878;8.142;2023-06-19T10:12:43;99711.59;;;37.57;33.47
66560;BME280;53413;49.878;8.142;2023-06-19T10:15:20;99704.50;;;37.15;33.16
66560;BME280;53413;49.878;8.142;2023-06-19T10:17:51;99700.19;;;36.66;33.81
66560;BME280;53413;49.878;8.142;2023-06-19T10:20:30;99705.44;;;37.09;33.82
66560;BME280;53413;49.878;8.142;2023-06-19T10:23:11;99698.44;;;37.13;33.71
66560;BME280;53413;49.878;8.142;2023-06-19T10:25:41;99695.25;;;37.04;32.78
66560;BME280;53413;49.878;8.142;2023-06-19T10:33:18;99705.03;;;35.07;36.17
66560;BME280;53413;49.878;8.142;2023-06-19T10:35:44;99697.00;;;34.75;36.71
66560;BME280;53413;49.878;8.142;2023-06-19T10:38:09;99693.97;;;34.46;36.95
66560;BME280;53413;49.878;8.142;2023-06-19T10:40:37;99697.59;;;34.58;37.33
66560;BME280;53413;49.878;8.142;2023-06-19T10:43:03;99703.50;;;34.55;37.18
66560;BME280;53413;49.878;8.142;2023-06-19T10:45:29;99697.44;;;34.28;37.16
66560;BME280;53413;49.878;8.142;2023-06-19T10:47:55;99692.06;;;34.21;37.77
66560;BME280;53413;49.878;8.142;2023-06-19T10:50:21;99695.44;;;33.91;37.78
66560;BME280;53413;49.878;8.142;2023-06-19T10:52:52;99687.19;;;34.04;37.56
66560;BME280;53413;49.878;8.142;2023-06-19T10:55:20;99688.44;;;34.27;37.56
66560;BME280;53413;49.878;8.142;2023-06-19T10:57:46;99687.31;;;34.42;36.85
66560;BME280;53413;49.878;8.142;2023-06-19T11:00:22;99687.84;;;34.69;37.09
66560;BME280;53413;49.878;8.142;2023-06-19T11:02:48;99685.81;;;34.64;37.24
66560;BME280;53413;49.878;8.142;2023-06-19T11:05:13;99682.03;;;34.65;36.87
66560;BME280;53413;49.878;8.142;2023-06-19T11:07:39;99680.16;;;35.22;36.80
66560;BME280;53413;49.878;8.142;2023-06-19T11:10:05;99679.91;;;35.72;35.25
66560;BME280;53413;49.878;8.142;2023-06-19T11:12:31;99693.38;;;35.98;35.71
66560;BME280;53413;49.878;8.142;2023-06-19T11:14:58;99682.38;;;35.74;35.03
66560;BME280;53413;49.878;8.142;2023-06-19T11:17:24;99677.13;;;35.60;35.56
66560;BME280;53413;49.878;8.142;2023-06-19T11:19:50;99668.19;;;35.84;35.84
66560;BME280;53413;49.878;8.142;2023-06-19T11:22:16;99670.41;;;35.87;35.06
66560;BME280;53413;49.878;8.142;2023-06-19T11:24:47;99660.28;;;35.52;35.34
66560;BME280;53413;49.878;8.142;2023-06-19T11:27:20;99669.34;;;35.15;36.72
66560;BME280;53413;49.878;8.142;2023-06-19T11:29:58;99669.88;;;34.87;35.98
66560;BME280;53413;49.878;8.142;2023-06-19T11:32:30;99662.31;;;34.70;35.79
66560;BME280;53413;49.878;8.142;2023-06-19T11:34:56;99660.50;;;34.38;36.51
66560;BME280;53413;49.878;8.142;2023-06-19T11:37:22;99658.19;;;34.42;36.63
66560;BME280;53413;49.878;8.142;2023-06-19T11:39:49;99664.59;;;34.29;36.31
66560;BME280;53413;49.878;8.142;2023-06-19T11:42:16;99666.59;;;34.15;36.91
66560;BME280;53413;49.878;8.142;2023-06-19T11:44:59;99656.22;;;34.05;36.32
66560;BME280;53413;49.878;8.142;2023-06-19T11:47:29;99655.03;;;33.95;36.86
66560;BME280;53413;49.878;8.142;2023-06-19T11:49:55;99644.72;;;33.78;36.72
66560;BME280;53413;49.878;8.142;2023-06-19T11:52:20;99653.84;;;33.90;36.94
66560;BME280;53413;49.878;8.142;2023-06-19T11:54:46;99647.41;;;33.78;36.78
66560;BME280;53413;49.878;8.142;2023-06-19T11:57:12;99658.69;;;33.50;36.89
66560;BME280;53413;49.878;8.142;2023-06-19T11:59:39;99657.00;;;33.55;36.99
66560;BME280;53413;49.878;8.142;2023-06-19T12:02:05;99664.13;;;33.50;37.17
66560;BME280;53413;49.878;8.142;2023-06-19T12:04:30;99652.06;;;33.32;36.80
66560;BME280;53413;49.878;8.142;2023-06-19T12:06:56;99651.09;;;33.20;36.90
66560;BME280;53413;49.878;8.142;2023-06-19T12:09:21;99654.88;;;33.12;36.78
66560;BME280;53413;49.878;8.142;2023-06-19T12:11:47;99648.00;;;33.09;36.50
66560;BME280;53413;49.878;8.142;2023-06-19T12:14:12;99647.97;;;33.16;36.19
66560;BME280;53413;49.878;8.142;2023-06-19T12:16:38;99647.47;;;33.33;36.55
66560;BME280;53413;49.878;8.142;2023-06-19T12:19:03;99637.50;;;33.58;36.11
66560;BME280;53413;49.878;8.142;2023-06-19T12:21:29;99625.19;;;33.88;35.44
66560;BME280;53413;49.878;8.142;2023-06-19T12:23:54;99633.75;;;34.17;34.93
66560;BME280;53413;49.878;8.142;2023-06-19T12:26:20;99632.75;;;34.55;34.54
66560;BME280;53413;49.878;8.142;2023-06-19T12:28:45;99629.56;;;34.77;33.92
66560;BME280;53413;49.878;8.142;2023-06-19T12:31:11;99628.78;;;35.07;33.62
66560;BME280;53413;49.878;8.142;2023-06-19T12:33:37;99627.91;;;35.43;33.18
66560;BME280;53413;49.878;8.142;2023-06-19T12:36:08;99626.41;;;35.48;33.01
66560;BME280;53413;49.878;8.142;2023-06-19T12:38:33;99636.41;;;35.66;32.76
66560;BME280;53413;49.878;8.142;2023-06-19T12:41:03;99635.53;;;35.65;31.80
66560;BME280;53413;49.878;8.142;2023-06-19T12:43:29;99630.34;;;35.75;32.09
66560;BME280;53413;49.878;8.142;2023-06-19T12:45:56;99636.41;;;35.66;33.13
66560;BME280;53413;49.878;8.142;2023-06-19T12:48:22;99631.94;;;36.07;32.25
66560;BME280;53413;49.878;8.142;2023-06-19T12:50:47;99627.81;;;36.28;31.83
66560;BME280;53413;49.878;8.142;2023-06-19T12:53:13;99623.53;;;36.32;31.47
66560;BME280;53413;49.878;8.142;2023-06-19T12:55:38;99629.00;;;36.20;31.59
66560;BME280;53413;49.878;8.142;2023-06-19T12:58:03;99626.72;;;36.41;31.08
66560;BME280;53413;49.878;8.142;2023-06-19T13:00:29;99622.59;;;36.50;31.15
66560;BME280;53413;49.878;8.142;2023-06-19T13:02:54;99618.53;;;36.41;31.30
66560;BME280;53413;49.878;8.142;2023-06-19T13:05:20;99619.16;;;36.08;31.49
66560;BME280;53413;49.878;8.142;2023-06-19T13:07:45;99619.84;;;36.03;32.36
66560;BME280;53413;49.878;8.142;2023-06-19T13:10:10;99629.78;;;35.85;32.22
66560;BME280;53413;49.878;8.142;2023-06-19T13:12:36;99620.94;;;36.02;31.78